Terminal Aerodrome Forecast
Issued by NWS

Home | Current Version | Previous Version | Text Only | Print | Product List | Glossary On
Versions: 1 2 3 4 5 6 7 8 9 10 11 12 13 14 15 16 17 18 19 20 21 22
000
FTUS46 KMFR 192348
TAFOTH
TAF
KOTH 192348Z 2000/2024 35027G37KT P6SM SKC
     FM200400 01017G25KT P6SM SKC
     FM200900 01008KT P6SM OVC005
     FM201300 01004KT 1SM BR OVC003
     FM201800 36025G35KT P6SM SKC=

USA.gov is the U.S. government's official web portal to all federal, state and local government web resources and services.